sensor_id;sensor_type;location;lat;lon;timestamp;temperature;humidity
21676;DHT22;10999;51.332;9.458;2023-07-29T00:01:56;18.10;99.90
21676;DHT22;10999;51.332;9.458;2023-07-29T00:04:23;18.10;99.90
21676;DHT22;10999;51.332;9.458;2023-07-29T00:06:50;18.10;99.90
21676;DHT22;10999;51.332;9.458;2023-07-29T00:09:17;18.10;99.90
21676;DHT22;10999;51.332;9.458;2023-07-29T00:11:44;18.10;99.90
21676;DHT22;10999;51.332;9.458;2023-07-29T00:14:11;18.10;99.90
21676;DHT22;10999;51.332;9.458;2023-07-29T00:16:38;18.10;99.90
21676;DHT22;10999;51.332;9.458;2023-07-29T00:19:06;18.10;99.90
21676;DHT22;10999;51.332;9.458;2023-07-29T00:21:32;18.10;99.90
21676;DHT22;10999;51.332;9.458;2023-07-29T00:23:59;18.10;99.90
21676;DHT22;10999;51.332;9.458;2023-07-29T00:26:28;18.10;99.90
21676;DHT22;10999;51.332;9.458;2023-07-29T00:28:58;18.20;99.90
21676;DHT22;10999;51.332;9.458;2023-07-29T00:31:25;18.10;99.90
21676;DHT22;10999;51.332;9.458;2023-07-29T00:33:52;18.10;99.90
21676;DHT22;10999;51.332;9.458;2023-07-29T00:36:19;18.20;99.90
21676;DHT22;10999;51.332;9.458;2023-07-29T00:38:47;18.10;99.90
21676;DHT22;10999;51.332;9.458;2023-07-29T00:41:14;18.10;99.90
21676;DHT22;10999;51.332;9.458;2023-07-29T00:43:41;18.10;99.90
21676;DHT22;10999;51.332;9.458;2023-07-29T00:46:09;18.10;99.90
21676;DHT22;10999;51.332;9.458;2023-07-29T00:48:37;18.00;99.90
21676;DHT22;10999;51.332;9.458;2023-07-29T00:51:04;18.10;99.90
21676;DHT22;10999;51.332;9.458;2023-07-29T00:53:31;18.00;99.90
21676;DHT22;10999;51.332;9.458;2023-07-29T00:55:59;18.10;99.90
21676;DHT22;10999;51.332;9.458;2023-07-29T00:58:26;18.10;99.90
21676;DHT22;10999;51.332;9.458;2023-07-29T01:00:54;18.00;99.90
21676;DHT22;10999;51.332;9.458;2023-07-29T01:03:21;18.00;99.90
21676;DHT22;10999;51.332;9.458;2023-07-29T01:05:59;18.00;99.90
21676;DHT22;10999;51.332;9.458;2023-07-29T01:08:46;18.00;99.90
21676;DHT22;10999;51.332;9.458;2023-07-29T01:11:48;18.00;99.90
21676;DHT22;10999;51.332;9.458;2023-07-29T01:14:40;18.00;99.90
21676;DHT22;10999;51.332;9.458;2023-07-29T01:17:11;18.00;99.90
21676;DHT22;10999;51.332;9.458;2023-07-29T01:22:23;18.00;99.90
21676;DHT22;10999;51.332;9.458;2023-07-29T01:24:50;18.00;99.90
21676;DHT22;10999;51.332;9.458;2023-07-29T01:27:17;18.00;99.90
21676;DHT22;10999;51.332;9.458;2023-07-29T01:29:44;18.00;99.90
21676;DHT22;10999;51.332;9.458;2023-07-29T01:32:17;18.00;99.90
21676;DHT22;10999;51.332;9.458;2023-07-29T01:34:55;18.00;99.90
21676;DHT22;10999;51.332;9.458;2023-07-29T01:37:26;18.00;99.90
21676;DHT22;10999;51.332;9.458;2023-07-29T01:39:57;18.00;99.90
21676;DHT22;10999;51.332;9.458;2023-07-29T01:42:25;18.00;99.90
21676;DHT22;10999;51.332;9.458;2023-07-29T01:44:56;18.00;99.90
21676;DHT22;10999;51.332;9.458;2023-07-29T01:47:23;18.00;99.90
21676;DHT22;10999;51.332;9.458;2023-07-29T01:49:49;18.00;99.90
21676;DHT22;10999;51.332;9.458;2023-07-29T01:52:16;18.00;99.90
21676;DHT22;10999;51.332;9.458;2023-07-29T01:54:43;18.00;99.90
21676;DHT22;10999;51.332;9.458;2023-07-29T01:57:10;18.00;99.90
21676;DHT22;10999;51.332;9.458;2023-07-29T01:59:37;17.90;99.90
21676;DHT22;10999;51.332;9.458;2023-07-29T02:02:04;18.00;99.90
21676;DHT22;10999;51.332;9.458;2023-07-29T02:04:31;18.00;99.90
21676;DHT22;10999;51.332;9.458;2023-07-29T02:06:58;17.90;99.90
21676;DHT22;10999;51.332;9.458;2023-07-29T02:09:25;18.00;99.90
21676;DHT22;10999;51.332;9.458;2023-07-29T02:11:52;18.00;99.90
21676;DHT22;10999;51.332;9.458;2023-07-29T02:14:19;18.00;99.90
21676;DHT22;10999;51.332;9.458;2023-07-29T02:16:46;18.00;99.90
21676;DHT22;10999;51.332;9.458;2023-07-29T02:19:13;18.00;99.90
21676;DHT22;10999;51.332;9.458;2023-07-29T02:21:40;18.00;99.90
21676;DHT22;10999;51.332;9.458;2023-07-29T02:24:07;18.00;99.90
21676;DHT22;10999;51.332;9.458;2023-07-29T02:26:33;18.00;99.90
21676;DHT22;10999;51.332;9.458;2023-07-29T02:29:01;18.00;99.90
21676;DHT22;10999;51.332;9.458;2023-07-29T02:31:28;18.00;99.90
21676;DHT22;10999;51.332;9.458;2023-07-29T02:33:54;18.00;99.90
21676;DHT22;10999;51.332;9.458;2023-07-29T02:36:22;18.00;99.90
21676;DHT22;10999;51.332;9.458;2023-07-29T02:38:49;18.00;99.90
21676;DHT22;10999;51.332;9.458;2023-07-29T02:41:15;18.00;99.90
21676;DHT22;10999;51.332;9.458;2023-07-29T02:43:43;18.00;99.90
21676;DHT22;10999;51.332;9.458;2023-07-29T02:46:10;18.00;99.90
21676;DHT22;10999;51.332;9.458;2023-07-29T02:48:37;18.00;99.90
21676;DHT22;10999;51.332;9.458;2023-07-29T02:51:04;18.00;99.90
21676;DHT22;10999;51.332;9.458;2023-07-29T02:53:30;18.00;99.90
21676;DHT22;10999;51.332;9.458;2023-07-29T02:55:57;18.00;99.90
21676;DHT22;10999;51.332;9.458;2023-07-29T02:58:24;18.10;99.90
21676;DHT22;10999;51.332;9.458;2023-07-29T03:00:53;18.10;99.90
21676;DHT22;10999;51.332;9.458;2023-07-29T03:03:19;18.10;99.90
21676;DHT22;10999;51.332;9.458;2023-07-29T03:05:47;18.10;99.90
21676;DHT22;10999;51.332;9.458;2023-07-29T03:08:14;18.10;99.90
21676;DHT22;10999;51.332;9.458;2023-07-29T03:10:40;18.10;99.90
21676;DHT22;10999;51.332;9.458;2023-07-29T03:13:08;18.10;99.90
21676;DHT22;10999;51.332;9.458;2023-07-29T03:15:35;18.10;99.90
21676;DHT22;10999;51.332;9.458;2023-07-29T03:18:02;18.10;99.90
21676;DHT22;10999;51.332;9.458;2023-07-29T03:20:29;18.10;99.90
21676;DHT22;10999;51.332;9.458;2023-07-29T03:22:56;18.10;99.90
21676;DHT22;10999;51.332;9.458;2023-07-29T03:25:22;18.10;99.90
21676;DHT22;10999;51.332;9.458;2023-07-29T03:27:49;18.10;99.90
21676;DHT22;10999;51.332;9.458;2023-07-29T03:30:19;18.10;99.90
21676;DHT22;10999;51.332;9.458;2023-07-29T03:32:48;18.10;99.90
21676;DHT22;10999;51.332;9.458;2023-07-29T03:35:16;18.10;99.90
21676;DHT22;10999;51.332;9.458;2023-07-29T03:37:43;18.10;99.90
21676;DHT22;10999;51.332;9.458;2023-07-29T03:40:10;18.10;99.90
21676;DHT22;10999;51.332;9.458;2023-07-29T03:42:37;18.00;99.90
21676;DHT22;10999;51.332;9.458;2023-07-29T03:45:04;18.10;99.90
21676;DHT22;10999;51.332;9.458;2023-07-29T03:47:31;18.00;99.90
21676;DHT22;10999;51.332;9.458;2023-07-29T03:49:58;18.00;99.90
21676;DHT22;10999;51.332;9.458;2023-07-29T03:52:25;18.00;99.90
21676;DHT22;10999;51.332;9.458;2023-07-29T03:54:52;18.00;99.90
21676;DHT22;10999;51.332;9.458;2023-07-29T03:57:19;17.90;99.90
21676;DHT22;10999;51.332;9.458;2023-07-29T03:59:46;17.90;99.90
21676;DHT22;10999;51.332;9.458;2023-07-29T04:02:12;17.90;99.90
21676;DHT22;10999;51.332;9.458;2023-07-29T04:04:39;17.90;99.90
21676;DHT22;10999;51.332;9.458;2023-07-29T04:07:08;17.90;99.90
21676;DHT22;10999;51.332;9.458;2023-07-29T04:09:35;17.90;99.90
21676;DHT22;10999;51.332;9.458;2023-07-29T04:12:02;17.90;99.90
21676;DHT22;10999;51.332;9.458;2023-07-29T04:14:29;17.90;99.90
21676;DHT22;10999;51.332;9.458;2023-07-29T04:16:56;17.90;99.90
21676;DHT22;10999;51.332;9.458;2023-07-29T04:19:22;17.90;99.90
21676;DHT22;10999;51.332;9.458;2023-07-29T04:21:49;17.90;99.90
21676;DHT22;10999;51.332;9.458;2023-07-29T04:24:19;17.90;99.90
21676;DHT22;10999;51.332;9.458;2023-07-29T04:26:46;17.90;99.90
21676;DHT22;10999;51.332;9.458;2023-07-29T04:29:13;17.90;99.90
21676;DHT22;10999;51.332;9.458;2023-07-29T04:31:40;17.90;99.90
21676;DHT22;10999;51.332;9.458;2023-07-29T04:34:07;17.90;99.90
21676;DHT22;10999;51.332;9.458;2023-07-29T04:36:34;17.90;99.90
21676;DHT22;10999;51.332;9.458;2023-07-29T04:39:02;17.90;99.90
21676;DHT22;10999;51.332;9.458;2023-07-29T04:41:29;17.90;99.90
21676;DHT22;10999;51.332;9.458;2023-07-29T04:43:55;18.00;99.90
21676;DHT22;10999;51.332;9.458;2023-07-29T04:46:22;17.90;99.90
21676;DHT22;10999;51.332;9.458;2023-07-29T04:48:49;17.90;99.90
21676;DHT22;10999;51.332;9.458;2023-07-29T04:51:16;18.00;99.90
21676;DHT22;10999;51.332;9.458;2023-07-29T04:53:43;18.00;99.90
21676;DHT22;10999;51.332;9.458;2023-07-29T04:56:10;17.90;99.90
21676;DHT22;10999;51.332;9.458;2023-07-29T04:58:36;18.00;99.90
21676;DHT22;10999;51.332;9.458;2023-07-29T05:01:04;18.00;99.90
21676;DHT22;10999;51.332;9.458;2023-07-29T05:03:31;18.00;99.90
21676;DHT22;10999;51.332;9.458;2023-07-29T05:05:58;18.00;99.90
21676;DHT22;10999;51.332;9.458;2023-07-29T05:08:28;18.00;99.90
21676;DHT22;10999;51.332;9.458;2023-07-29T05:10:55;17.90;99.90
21676;DHT22;10999;51.332;9.458;2023-07-29T05:13:22;18.00;99.90
21676;DHT22;10999;51.332;9.458;2023-07-29T05:15:50;18.00;99.90
21676;DHT22;10999;51.332;9.458;2023-07-29T05:18:17;18.00;99.90
21676;DHT22;10999;51.332;9.458;2023-07-29T05:20:44;18.00;99.90
21676;DHT22;10999;51.332;9.458;2023-07-29T05:23:11;18.00;99.90
21676;DHT22;10999;51.332;9.458;2023-07-29T05:25:38;18.00;99.90
21676;DHT22;10999;51.332;9.458;2023-07-29T05:28:06;18.00;99.90
21676;DHT22;10999;51.332;9.458;2023-07-29T05:30:33;18.00;99.90
21676;DHT22;10999;51.332;9.458;2023-07-29T05:33:03;18.00;99.90
21676;DHT22;10999;51.332;9.458;2023-07-29T05:35:37;18.00;99.90
21676;DHT22;10999;51.332;9.458;2023-07-29T05:38:04;18.00;99.90
21676;DHT22;10999;51.332;9.458;2023-07-29T05:40:33;18.10;99.90
21676;DHT22;10999;51.332;9.458;2023-07-29T05:43:00;18.10;99.90
21676;DHT22;10999;51.332;9.458;2023-07-29T05:45:27;18.00;99.90
21676;DHT22;10999;51.332;9.458;2023-07-29T05:47:53;18.10;99.90
21676;DHT22;10999;51.332;9.458;2023-07-29T05:50:21;18.10;99.90
21676;DHT22;10999;51.332;9.458;2023-07-29T05:52:47;18.10;99.90
21676;DHT22;10999;51.332;9.458;2023-07-29T05:55:14;18.10;99.90
21676;DHT22;10999;51.332;9.458;2023-07-29T05:57:41;18.10;99.90
21676;DHT22;10999;51.332;9.458;2023-07-29T06:00:10;18.20;99.90
21676;DHT22;10999;51.332;9.458;2023-07-29T06:02:37;18.20;99.90
21676;DHT22;10999;51.332;9.458;2023-07-29T06:05:04;18.20;99.90
21676;DHT22;10999;51.332;9.458;2023-07-29T06:07:31;18.20;99.90
21676;DHT22;10999;51.332;9.458;2023-07-29T06:10:00;18.20;99.90
21676;DHT22;10999;51.332;9.458;2023-07-29T06:12:27;18.30;99.90
21676;DHT22;10999;51.332;9.458;2023-07-29T06:14:54;18.30;99.90
21676;DHT22;10999;51.332;9.458;2023-07-29T06:17:20;18.30;99.90
21676;DHT22;10999;51.332;9.458;2023-07-29T06:19:47;18.40;99.90
21676;DHT22;10999;51.332;9.458;2023-07-29T06:22:14;18.50;99.90
21676;DHT22;10999;51.332;9.458;2023-07-29T06:24:41;18.50;99.90
21676;DHT22;10999;51.332;9.458;2023-07-29T06:27:07;18.60;99.90
21676;DHT22;10999;51.332;9.458;2023-07-29T06:29:34;18.70;99.90
21676;DHT22;10999;51.332;9.458;2023-07-29T06:32:01;18.80;99.90
21676;DHT22;10999;51.332;9.458;2023-07-29T06:34:28;18.80;99.90
21676;DHT22;10999;51.332;9.458;2023-07-29T06:36:55;19.00;99.90
21676;DHT22;10999;51.332;9.458;2023-07-29T06:39:22;19.00;99.90
21676;DHT22;10999;51.332;9.458;2023-07-29T06:41:49;19.00;99.90
21676;DHT22;10999;51.332;9.458;2023-07-29T06:44:16;19.10;99.90
21676;DHT22;10999;51.332;9.458;2023-07-29T06:46:42;19.10;99.90
21676;DHT22;10999;51.332;9.458;2023-07-29T06:49:09;19.00;99.90
21676;DHT22;10999;51.332;9.458;2023-07-29T06:51:36;18.90;99.90
21676;DHT22;10999;51.332;9.458;2023-07-29T06:54:03;19.00;99.90
21676;DHT22;10999;51.332;9.458;2023-07-29T06:56:30;18.90;99.90
21676;DHT22;10999;51.332;9.458;2023-07-29T06:58:57;18.90;99.90
21676;DHT22;10999;51.332;9.458;2023-07-29T07:01:23;18.80;99.90
21676;DHT22;10999;51.332;9.458;2023-07-29T07:03:50;18.80;99.90
21676;DHT22;10999;51.332;9.458;2023-07-29T07:06:22;18.80;99.90
21676;DHT22;10999;51.332;9.458;2023-07-29T07:08:49;18.80;99.90
21676;DHT22;10999;51.332;9.458;2023-07-29T07:11:16;18.70;99.90
21676;DHT22;10999;51.332;9.458;2023-07-29T07:13:43;18.70;99.90
21676;DHT22;10999;51.332;9.458;2023-07-29T07:16:10;18.80;99.90
21676;DHT22;10999;51.332;9.458;2023-07-29T07:18:36;18.80;99.90
21676;DHT22;10999;51.332;9.458;2023-07-29T07:21:03;18.90;99.90
21676;DHT22;10999;51.332;9.458;2023-07-29T07:23:30;18.90;99.90
21676;DHT22;10999;51.332;9.458;2023-07-29T07:25:57;19.00;99.90
21676;DHT22;10999;51.332;9.458;2023-07-29T07:28:24;19.00;99.90
21676;DHT22;10999;51.332;9.458;2023-07-29T07:30:51;19.10;99.90
21676;DHT22;10999;51.332;9.458;2023-07-29T07:33:18;19.10;99.90
21676;DHT22;10999;51.332;9.458;2023-07-29T07:35:45;19.10;99.90
21676;DHT22;10999;51.332;9.458;2023-07-29T07:38:11;19.10;99.90
21676;DHT22;10999;51.332;9.458;2023-07-29T07:40:38;19.10;99.90
21676;DHT22;10999;51.332;9.458;2023-07-29T07:43:05;19.10;99.90
21676;DHT22;10999;51.332;9.458;2023-07-29T07:45:32;19.10;99.90
21676;DHT22;10999;51.332;9.458;2023-07-29T07:47:59;19.10;99.90
21676;DHT22;10999;51.332;9.458;2023-07-29T07:50:29;19.10;99.90
21676;DHT22;10999;51.332;9.458;2023-07-29T07:52:56;19.20;99.90
21676;DHT22;10999;51.332;9.458;2023-07-29T07:55:23;19.30;99.90
21676;DHT22;10999;51.332;9.458;2023-07-29T07:57:50;19.30;99.90
21676;DHT22;10999;51.332;9.458;2023-07-29T08:00:17;19.30;99.90
21676;DHT22;10999;51.332;9.458;2023-07-29T08:02:45;19.40;99.90
21676;DHT22;10999;51.332;9.458;2023-07-29T08:05:12;19.50;99.90
21676;DHT22;10999;51.332;9.458;2023-07-29T08:07:39;19.50;99.90
21676;DHT22;10999;51.332;9.458;2023-07-29T08:10:06;19.50;99.90
21676;DHT22;10999;51.332;9.458;2023-07-29T08:12:33;19.50;99.90
21676;DHT22;10999;51.332;9.458;2023-07-29T08:15:00;19.60;99.90
21676;DHT22;10999;51.332;9.458;2023-07-29T08:17:27;19.60;99.90
21676;DHT22;10999;51.332;9.458;2023-07-29T08:19:54;19.80;99.90
21676;DHT22;10999;51.332;9.458;2023-07-29T08:22:21;19.70;99.90
21676;DHT22;10999;51.332;9.458;2023-07-29T08:24:47;19.80;99.90
21676;DHT22;10999;51.332;9.458;2023-07-29T08:27:14;19.90;99.90
21676;DHT22;10999;51.332;9.458;2023-07-29T08:29:41;19.90;99.90
21676;DHT22;10999;51.332;9.458;2023-07-29T08:32:08;20.00;99.90
21676;DHT22;10999;51.332;9.458;2023-07-29T08:34:35;19.90;99.90
21676;DHT22;10999;51.332;9.458;2023-07-29T08:37:02;20.00;99.90
21676;DHT22;10999;51.332;9.458;2023-07-29T08:39:29;20.00;99.90
21676;DHT22;10999;51.332;9.458;2023-07-29T08:42:03;20.10;99.90
21676;DHT22;10999;51.332;9.458;2023-07-29T08:44:41;20.20;99.90
21676;DHT22;10999;51.332;9.458;2023-07-29T08:47:08;20.20;99.90
21676;DHT22;10999;51.332;9.458;2023-07-29T08:49:36;20.10;99.90
21676;DHT22;10999;51.332;9.458;2023-07-29T08:52:04;20.10;99.90
21676;DHT22;10999;51.332;9.458;2023-07-29T08:54:31;20.10;99.90
21676;DHT22;10999;51.332;9.458;2023-07-29T08:56:59;20.10;99.90
21676;DHT22;10999;51.332;9.458;2023-07-29T08:59:28;20.20;99.90
21676;DHT22;10999;51.332;9.458;2023-07-29T09:01:56;20.20;99.90
21676;DHT22;10999;51.332;9.458;2023-07-29T09:04:24;20.20;99.90
21676;DHT22;10999;51.332;9.458;2023-07-29T09:06:51;20.40;98.30
21676;DHT22;10999;51.332;9.458;2023-07-29T09:09:21;20.50;99.30
21676;DHT22;10999;51.332;9.458;2023-07-29T09:11:48;20.70;99.90
21676;DHT22;10999;51.332;9.458;2023-07-29T09:14:15;21.10;99.90
21676;DHT22;10999;51.332;9.458;2023-07-29T09:16:42;21.50;93.50
21676;DHT22;10999;51.332;9.458;2023-07-29T09:19:09;21.80;95.80
21676;DHT22;10999;51.332;9.458;2023-07-29T09:21:39;21.90;90.20
21676;DHT22;10999;51.332;9.458;2023-07-29T09:24:07;21.90;86.00
21676;DHT22;10999;51.332;9.458;2023-07-29T09:26:34;21.90;87.20
21676;DHT22;10999;51.332;9.458;2023-07-29T09:29:03;21.90;85.70
21676;DHT22;10999;51.332;9.458;2023-07-29T09:31:30;21.90;85.00
21676;DHT22;10999;51.332;9.458;2023-07-29T09:34:01;22.00;87.60
21676;DHT22;10999;51.332;9.458;2023-07-29T09:36:30;21.80;85.90
21676;DHT22;10999;51.332;9.458;2023-07-29T09:38:57;21.70;83.80
21676;DHT22;10999;51.332;9.458;2023-07-29T09:41:28;22.00;87.30
21676;DHT22;10999;51.332;9.458;2023-07-29T09:44:02;22.30;85.70
21676;DHT22;10999;51.332;9.458;2023-07-29T09:46:36;22.50;78.10
21676;DHT22;10999;51.332;9.458;2023-07-29T09:49:06;22.70;78.90
21676;DHT22;10999;51.332;9.458;2023-07-29T09:51:38;22.80;78.90
21676;DHT22;10999;51.332;9.458;2023-07-29T09:54:05;23.00;76.40
21676;DHT22;10999;51.332;9.458;2023-07-29T09:56:33;23.20;76.60
21676;DHT22;10999;51.332;9.458;2023-07-29T09:59:00;23.10;73.10
21676;DHT22;10999;51.332;9.458;2023-07-29T10:01:31;23.30;73.30
21676;DHT22;10999;51.332;9.458;2023-07-29T10:03:59;23.40;74.50
21676;DHT22;10999;51.332;9.458;2023-07-29T10:06:29;23.50;74.70
21676;DHT22;10999;51.332;9.458;2023-07-29T10:08:56;23.60;71.00
21676;DHT22;10999;51.332;9.458;2023-07-29T10:11:24;23.40;70.80
21676;DHT22;10999;51.332;9.458;2023-07-29T10:13:51;23.20;70.00
21676;DHT22;10999;51.332;9.458;2023-07-29T10:16:36;23.20;69.30
21676;DHT22;10999;51.332;9.458;2023-07-29T10:19:04;23.20;74.60
21676;DHT22;10999;51.332;9.458;2023-07-29T10:21:31;23.30;73.80
21676;DHT22;10999;51.332;9.458;2023-07-29T10:24:01;23.50;75.70
21676;DHT22;10999;51.332;9.458;2023-07-29T10:26:31;23.70;68.30
21676;DHT22;10999;51.332;9.458;2023-07-29T10:29:04;24.00;67.60
21676;DHT22;10999;51.332;9.458;2023-07-29T10:31:35;24.10;66.30
21676;DHT22;10999;51.332;9.458;2023-07-29T10:34:03;24.10;60.70
21676;DHT22;10999;51.332;9.458;2023-07-29T10:36:31;23.90;61.40
21676;DHT22;10999;51.332;9.458;2023-07-29T10:38:58;23.70;61.20
21676;DHT22;10999;51.332;9.458;2023-07-29T10:47:26;23.20;65.60
21676;DHT22;10999;51.332;9.458;2023-07-29T10:49:56;23.10;66.30
21676;DHT22;10999;51.332;9.458;2023-07-29T10:55:03;23.50;68.30
21676;DHT22;10999;51.332;9.458;2023-07-29T10:57:32;23.70;62.90
21676;DHT22;10999;51.332;9.458;2023-07-29T11:00:00;23.80;64.80
21676;DHT22;10999;51.332;9.458;2023-07-29T11:02:32;23.80;59.70
21676;DHT22;10999;51.332;9.458;2023-07-29T11:04:59;23.90;58.80
21676;DHT22;10999;51.332;9.458;2023-07-29T11:07:47;24.10;59.20
21676;DHT22;10999;51.332;9.458;2023-07-29T11:10:14;24.50;57.10
21676;DHT22;10999;51.332;9.458;2023-07-29T11:15:23;24.90;53.30
21676;DHT22;10999;51.332;9.458;2023-07-29T11:17:52;24.90;51.50
21676;DHT22;10999;51.332;9.458;2023-07-29T11:20:22;24.90;53.80
21676;DHT22;10999;51.332;9.458;2023-07-29T11:22:49;25.00;56.30
21676;DHT22;10999;51.332;9.458;2023-07-29T11:25:17;25.10;53.30
21676;DHT22;10999;51.332;9.458;2023-07-29T11:27:45;25.30;46.00
21676;DHT22;10999;51.332;9.458;2023-07-29T11:30:14;25.30;46.00
21676;DHT22;10999;51.332;9.458;2023-07-29T11:32:43;25.00;41.10
21676;DHT22;10999;51.332;9.458;2023-07-29T11:35:13;24.70;42.80
21676;DHT22;10999;51.332;9.458;2023-07-29T11:37:43;24.50;44.60
21676;DHT22;10999;51.332;9.458;2023-07-29T11:40:19;24.40;49.20
21676;DHT22;10999;51.332;9.458;2023-07-29T11:42:48;24.00;48.00
21676;DHT22;10999;51.332;9.458;2023-07-29T11:45:18;23.80;47.90
21676;DHT22;10999;51.332;9.458;2023-07-29T11:47:46;23.60;49.70
21676;DHT22;10999;51.332;9.458;2023-07-29T11:50:14;23.60;53.30
21676;DHT22;10999;51.332;9.458;2023-07-29T11:52:43;23.70;49.90
21676;DHT22;10999;51.332;9.458;2023-07-29T11:55:12;23.70;49.00
21676;DHT22;10999;51.332;9.458;2023-07-29T11:57:39;23.80;48.60
21676;DHT22;10999;51.332;9.458;2023-07-29T12:00:08;23.80;45.50
21676;DHT22;10999;51.332;9.458;2023-07-29T12:02:41;23.80;44.50
21676;DHT22;10999;51.332;9.458;2023-07-29T12:05:12;23.80;42.00
21676;DHT22;10999;51.332;9.458;2023-07-29T12:07:39;24.00;43.60
21676;DHT22;10999;51.332;9.458;2023-07-29T12:10:06;24.10;40.10
21676;DHT22;10999;51.332;9.458;2023-07-29T12:12:40;24.10;41.00
21676;DHT22;10999;51.332;9.458;2023-07-29T12:15:10;24.10;41.50
21676;DHT22;10999;51.332;9.458;2023-07-29T12:17:41;24.10;40.00
21676;DHT22;10999;51.332;9.458;2023-07-29T12:20:09;24.10;40.90
21676;DHT22;10999;51.332;9.458;2023-07-29T12:22:38;24.00;40.60
21676;DHT22;10999;51.332;9.458;2023-07-29T12:25:05;23.90;41.90
21676;DHT22;10999;51.332;9.458;2023-07-29T12:27:33;23.80;42.90
21676;DHT22;10999;51.332;9.458;2023-07-29T12:30:01;23.70;43.20
21676;DHT22;10999;51.332;9.458;2023-07-29T12:32:30;23.60;41.80
21676;DHT22;10999;51.332;9.458;2023-07-29T12:34:57;23.50;41.80
21676;DHT22;10999;51.332;9.458;2023-07-29T12:37:31;23.60;41.70
21676;DHT22;10999;51.332;9.458;2023-07-29T12:39:59;23.60;43.20
21676;DHT22;10999;51.332;9.458;2023-07-29T12:42:26;23.50;42.70
21676;DHT22;10999;51.332;9.458;2023-07-29T12:44:53;23.50;41.10
21676;DHT22;10999;51.332;9.458;2023-07-29T12:47:20;23.50;45.20
21676;DHT22;10999;51.332;9.458;2023-07-29T12:49:46;23.40;42.70
21676;DHT22;10999;51.332;9.458;2023-07-29T12:52:13;23.50;48.00
21676;DHT22;10999;51.332;9.458;2023-07-29T12:54:40;23.80;45.50
21676;DHT22;10999;51.332;9.458;2023-07-29T12:57:08;24.00;43.00
21676;DHT22;10999;51.332;9.458;2023-07-29T12:59:35;24.00;41.00
21676;DHT22;10999;51.332;9.458;2023-07-29T13:02:01;24.00;42.20
21676;DHT22;10999;51.332;9.458;2023-07-29T13:04:31;23.90;40.80
21676;DHT22;10999;51.332;9.458;2023-07-29T13:06:57;23.80;43.50
21676;DHT22;10999;51.332;9.458;2023-07-29T13:09:26;23.90;44.20
21676;DHT22;10999;51.332;9.458;2023-07-29T13:11:52;24.00;43.30
21676;DHT22;10999;51.332;9.458;2023-07-29T13:14:19;24.20;41.60
21676;DHT22;10999;51.332;9.458;2023-07-29T13:16:46;24.50;40.70
21676;DHT22;10999;51.332;9.458;2023-07-29T13:19:13;24.40;40.10
21676;DHT22;10999;51.332;9.458;2023-07-29T13:21:39;24.20;37.70
21676;DHT22;10999;51.332;9.458;2023-07-29T13:24:06;24.10;37.40
21676;DHT22;10999;51.332;9.458;2023-07-29T13:26:33;24.30;39.60
21676;DHT22;10999;51.332;9.458;2023-07-29T13:29:01;24.40;37.60
21676;DHT22;10999;51.332;9.458;2023-07-29T13:31:27;24.40;39.30
21676;DHT22;10999;51.332;9.458;2023-07-29T13:33:54;24.50;44.60
21676;DHT22;10999;51.332;9.458;2023-07-29T13:36:21;24.60;38.10
21676;DHT22;10999;51.332;9.458;2023-07-29T13:38:48;24.40;36.70
21676;DHT22;10999;51.332;9.458;2023-07-29T13:41:15;24.30;41.20
21676;DHT22;10999;51.332;9.458;2023-07-29T13:43:41;24.30;40.20
21676;DHT22;10999;51.332;9.458;2023-07-29T13:46:08;24.20;40.10
21676;DHT22;10999;51.332;9.458;2023-07-29T13:48:35;24.10;39.70
21676;DHT22;10999;51.332;9.458;2023-07-29T13:51:02;24.00;41.50
21676;DHT22;10999;51.332;9.458;2023-07-29T13:53:29;24.00;40.60
21676;DHT22;10999;51.332;9.458;2023-07-29T13:55:56;24.00;40.70
21676;DHT22;10999;51.332;9.458;2023-07-29T13:58:23;24.00;41.50
21676;DHT22;10999;51.332;9.458;2023-07-29T14:00:50;23.90;41.00
21676;DHT22;10999;51.332;9.458;2023-07-29T14:03:17;23.80;41.70
21676;DHT22;10999;51.332;9.458;2023-07-29T14:05:43;23.80;44.70
21676;DHT22;10999;51.332;9.458;2023-07-29T14:08:10;23.60;44.10
21676;DHT22;10999;51.332;9.458;2023-07-29T14:10:37;23.60;45.30
21676;DHT22;10999;51.332;9.458;2023-07-29T14:13:04;23.60;45.60
21676;DHT22;10999;51.332;9.458;2023-07-29T14:15:31;23.60;45.80
21676;DHT22;10999;51.332;9.458;2023-07-29T14:17:59;23.60;43.70
21676;DHT22;10999;51.332;9.458;2023-07-29T14:20:26;23.60;46.70
21676;DHT22;10999;51.332;9.458;2023-07-29T14:22:53;23.50;46.60
21676;DHT22;10999;51.332;9.458;2023-07-29T14:25:19;23.50;47.90
21676;DHT22;10999;51.332;9.458;2023-07-29T14:27:46;23.40;48.70
21676;DHT22;10999;51.332;9.458;2023-07-29T14:30:13;23.20;51.30
21676;DHT22;10999;51.332;9.458;2023-07-29T14:32:40;23.00;55.50
21676;DHT22;10999;51.332;9.458;2023-07-29T14:35:07;22.80;56.70
21676;DHT22;10999;51.332;9.458;2023-07-29T14:37:35;22.60;56.20
21676;DHT22;10999;51.332;9.458;2023-07-29T14:40:02;22.50;57.10
21676;DHT22;10999;51.332;9.458;2023-07-29T14:42:29;22.40;60.20
21676;DHT22;10999;51.332;9.458;2023-07-29T14:44:58;22.40;59.60
21676;DHT22;10999;51.332;9.458;2023-07-29T14:47:25;22.40;58.60
21676;DHT22;10999;51.332;9.458;2023-07-29T14:49:52;22.50;59.90
21676;DHT22;10999;51.332;9.458;2023-07-29T14:52:19;22.70;57.70
21676;DHT22;10999;51.332;9.458;2023-07-29T14:54:45;22.80;57.40
21676;DHT22;10999;51.332;9.458;2023-07-29T14:57:12;23.00;59.00
21676;DHT22;10999;51.332;9.458;2023-07-29T14:59:39;23.40;54.00
21676;DHT22;10999;51.332;9.458;2023-07-29T15:02:06;23.70;47.90
21676;DHT22;10999;51.332;9.458;2023-07-29T15:04:33;23.90;48.00
21676;DHT22;10999;51.332;9.458;2023-07-29T15:07:01;24.10;41.80
21676;DHT22;10999;51.332;9.458;2023-07-29T15:09:28;24.20;41.20
21676;DHT22;10999;51.332;9.458;2023-07-29T15:11:55;24.30;41.70
21676;DHT22;10999;51.332;9.458;2023-07-29T15:14:24;24.40;39.50
21676;DHT22;10999;51.332;9.458;2023-07-29T15:16:52;24.60;38.90
21676;DHT22;10999;51.332;9.458;2023-07-29T15:19:19;24.50;35.60
21676;DHT22;10999;51.332;9.458;2023-07-29T15:21:46;24.60;36.10
21676;DHT22;10999;51.332;9.458;2023-07-29T15:24:14;24.60;36.00
21676;DHT22;10999;51.332;9.458;2023-07-29T15:26:40;24.70;37.10
21676;DHT22;10999;51.332;9.458;2023-07-29T15:29:08;24.70;34.30
21676;DHT22;10999;51.332;9.458;2023-07-29T15:31:35;24.60;34.60
21676;DHT22;10999;51.332;9.458;2023-07-29T15:34:02;24.50;35.60
21676;DHT22;10999;51.332;9.458;2023-07-29T15:36:29;24.20;34.90
21676;DHT22;10999;51.332;9.458;2023-07-29T15:38:56;24.00;37.70
21676;DHT22;10999;51.332;9.458;2023-07-29T15:41:24;23.80;36.30
21676;DHT22;10999;51.332;9.458;2023-07-29T15:43:51;23.60;38.50
21676;DHT22;10999;51.332;9.458;2023-07-29T15:46:17;23.70;40.00
21676;DHT22;10999;51.332;9.458;2023-07-29T15:48:44;23.80;39.00